createdAt,value
2022-12-15T00:02:19.210Z,26.13
2022-12-15T00:05:04.461Z,26.47
2022-12-15T00:07:50.070Z,28.60
2022-12-15T00:10:36.001Z,28.10
2022-12-15T00:13:21.856Z,30.43
2022-12-15T00:16:07.906Z,28.27
2022-12-15T00:18:54.572Z,28.20
2022-12-15T00:21:39.656Z,34.13
2022-12-15T00:24:25.074Z,28.07
2022-12-15T00:27:10.213Z,26.97
2022-12-15T00:29:55.447Z,22.60
2022-12-15T00:32:40.993Z,24.27
2022-12-15T00:35:27.978Z,25.87
2022-12-15T00:38:13.727Z,25.80
2022-12-15T00:40:40.617Z,23.30
2022-12-15T00:43:12.144Z,24.90
2022-12-15T00:45:58.020Z,23.00
2022-12-15T00:48:24.946Z,23.67
2022-12-15T00:50:53.184Z,24.17
2022-12-15T00:53:38.924Z,23.77
2022-12-15T00:56:24.492Z,22.57
2022-12-15T00:59:09.753Z,22.97
2022-12-15T01:01:55.029Z,24.00
2022-12-15T01:04:40.236Z,23.47
2022-12-15T01:07:27.209Z,22.17
2022-12-15T01:10:12.541Z,21.87
2022-12-15T01:12:58.057Z,23.33
2022-12-15T01:15:43.556Z,21.63
2022-12-15T01:18:28.722Z,20.93
2022-12-15T01:20:56.698Z,22.67
2022-12-15T01:23:25.133Z,23.43
2022-12-15T01:25:53.378Z,24.77
2022-12-15T01:28:20.382Z,23.13
2022-12-15T01:30:47.518Z,22.43
2022-12-15T01:33:15.471Z,22.63
2022-12-15T01:35:42.323Z,25.00
2022-12-15T01:38:09.638Z,23.30
2022-12-15T01:40:47.078Z,22.80
2022-12-15T01:43:16.540Z,24.63
2022-12-15T01:45:50.909Z,28.43
2022-12-15T01:48:26.777Z,25.27
2022-12-15T01:51:01.253Z,23.37
2022-12-15T01:53:29.531Z,23.30
2022-12-15T01:55:59.014Z,23.73
2022-12-15T01:58:27.048Z,24.40
2022-12-15T02:00:53.938Z,21.80
2022-12-15T02:03:21.260Z,22.43
2022-12-15T02:05:48.693Z,23.70
2022-12-15T02:08:15.587Z,22.60
2022-12-15T02:11:00.540Z,24.30
2022-12-15T02:13:35.453Z,22.43
2022-12-15T02:16:13.680Z,22.37
2022-12-15T02:18:55.189Z,23.40
2022-12-15T02:21:28.531Z,22.97
2022-12-15T02:24:40.160Z,22.80
2022-12-15T02:27:34.467Z,23.13
2022-12-15T02:30:26.436Z,24.20
2022-12-15T02:33:08.491Z,23.17
2022-12-15T02:35:47.831Z,23.37
2022-12-15T02:38:14.751Z,21.87
2022-12-15T02:40:41.833Z,22.77
2022-12-15T02:43:10.200Z,22.93
2022-12-15T02:45:49.673Z,24.77
2022-12-15T02:48:26.324Z,26.80
2022-12-15T02:51:08.590Z,25.20
2022-12-15T02:54:06.262Z,23.17
2022-12-15T02:56:41.533Z,24.10
2022-12-15T02:59:13.671Z,25.37
2022-12-15T03:01:47.531Z,22.70
2022-12-15T03:04:17.415Z,25.10
2022-12-15T03:06:44.369Z,22.63
2022-12-15T03:09:11.208Z,26.07
2022-12-15T03:11:38.263Z,26.57
2022-12-15T03:14:05.066Z,22.83
2022-12-15T03:16:31.937Z,23.93
2022-12-15T03:19:00.181Z,25.00
2022-12-15T03:21:27.667Z,23.97
2022-12-15T03:23:54.525Z,25.30
2022-12-15T03:26:21.730Z,23.80
2022-12-15T03:28:48.513Z,23.50
2022-12-15T03:31:15.499Z,24.60
2022-12-15T03:33:42.255Z,25.43
2022-12-15T03:36:10.755Z,23.70
2022-12-15T03:38:37.653Z,21.17
2022-12-15T03:41:04.510Z,25.37
2022-12-15T03:43:31.577Z,24.47
2022-12-15T03:45:58.694Z,22.73
2022-12-15T03:48:25.588Z,24.67
2022-12-15T03:50:52.378Z,24.40
2022-12-15T03:53:20.724Z,26.23
2022-12-15T03:55:47.630Z,23.73
2022-12-15T03:58:14.455Z,24.87
2022-12-15T04:00:41.374Z,26.17
2022-12-15T04:03:09.551Z,25.00
2022-12-15T04:05:37.911Z,27.20
2022-12-15T04:08:05.559Z,25.33
2022-12-15T04:10:35.620Z,24.00
2022-12-15T04:13:04.350Z,24.60
2022-12-15T04:15:31.202Z,24.33
2022-12-15T04:17:58.478Z,25.07
2022-12-15T04:20:25.333Z,23.27
2022-12-15T04:22:52.301Z,23.70
2022-12-15T04:25:40.627Z,22.20
2022-12-15T04:28:29.163Z,23.43
2022-12-15T04:31:17.770Z,21.93
2022-12-15T04:34:06.022Z,19.50
2022-12-15T04:36:51.926Z,21.63
2022-12-15T04:39:37.560Z,22.13
2022-12-15T04:42:23.388Z,20.57
2022-12-15T04:45:18.612Z,21.67
2022-12-15T04:48:06.145Z,19.03
2022-12-15T04:50:51.561Z,20.13
2022-12-15T04:53:38.251Z,19.40
2022-12-15T04:56:27.547Z,21.83
2022-12-15T04:59:12.788Z,20.60
2022-12-15T05:01:59.820Z,23.07
2022-12-15T05:04:45.184Z,21.93
2022-12-15T05:07:30.942Z,21.80
2022-12-15T05:10:16.306Z,22.43
2022-12-15T05:13:02.365Z,21.80
2022-12-15T05:15:48.117Z,21.50
2022-12-15T05:18:34.829Z,21.60
2022-12-15T05:21:20.325Z,21.30
2022-12-15T05:24:05.479Z,22.63
2022-12-15T05:26:52.990Z,23.33
2022-12-15T05:29:39.248Z,23.90
2022-12-15T05:32:06.689Z,21.93
2022-12-15T05:34:36.516Z,23.13
2022-12-15T05:37:05.132Z,24.00
2022-12-15T05:39:32.162Z,24.90
2022-12-15T05:41:59.054Z,23.93
2022-12-15T05:44:26.344Z,23.70
2022-12-15T05:46:53.742Z,23.90
2022-12-15T05:49:21.056Z,22.67
2022-12-15T05:51:49.406Z,23.67
2022-12-15T05:54:18.112Z,25.27
2022-12-15T05:56:45.349Z,23.60
2022-12-15T05:59:12.574Z,24.30
2022-12-15T06:01:39.920Z,22.83
2022-12-15T06:04:07.550Z,23.17
2022-12-15T06:06:34.711Z,23.93
2022-12-15T06:09:03.633Z,25.70
2022-12-15T06:14:11.045Z,23.80
2022-12-15T06:16:44.238Z,23.17
2022-12-15T06:19:17.348Z,25.33
2022-12-15T06:21:44.260Z,25.13
2022-12-15T06:24:12.489Z,25.87
2022-12-15T06:26:40.186Z,25.67
2022-12-15T07:01:27.917Z,24.57
2022-12-15T07:03:55.763Z,24.50
2022-12-15T07:06:23.169Z,26.20
2022-12-15T07:30:16.120Z,28.53
2022-12-15T07:32:44.329Z,27.97
2022-12-15T07:35:17.934Z,31.60
2022-12-15T07:37:44.747Z,27.87
2022-12-15T07:40:12.166Z,29.50
2022-12-15T07:42:39.295Z,29.90
2022-12-15T07:45:07.552Z,28.90
2022-12-15T07:50:23.322Z,30.60
2022-12-15T07:52:51.580Z,28.97
2022-12-15T07:58:10.161Z,26.80
2022-12-15T08:03:18.851Z,28.63
2022-12-15T08:05:47.356Z,32.93
2022-12-15T08:08:15.600Z,41.40
2022-12-15T08:10:42.552Z,35.33
2022-12-15T08:13:09.860Z,33.90
2022-12-15T08:15:37.237Z,35.03
2022-12-15T08:18:04.676Z,35.83
2022-12-15T08:20:31.809Z,38.47
2022-12-15T08:23:00.121Z,35.53
2022-12-15T08:25:30.300Z,34.30
2022-12-15T08:27:57.422Z,33.33
2022-12-15T08:30:24.452Z,33.83
2022-12-15T08:32:52.126Z,32.83
2022-12-15T08:35:39.235Z,35.80
2022-12-15T08:38:07.517Z,35.73
2022-12-15T08:40:34.395Z,38.37
2022-12-15T08:43:01.194Z,37.83
2022-12-15T08:45:28.003Z,39.13
2022-12-15T08:47:56.118Z,38.87
2022-12-15T08:50:22.962Z,41.37
2022-12-15T08:53:13.764Z,40.10
2022-12-15T08:55:38.199Z,37.73
2022-12-15T08:58:05.364Z,42.47
2022-12-15T09:00:32.227Z,38.23
2022-12-15T09:03:00.561Z,38.00
2022-12-15T09:05:27.468Z,37.50
2022-12-15T09:07:55.601Z,37.20
2022-12-15T09:10:23.544Z,38.00
2022-12-15T09:12:51.778Z,38.43
2022-12-15T09:15:19.396Z,38.50
2022-12-15T09:17:46.981Z,41.63
2022-12-15T09:20:17.800Z,39.57
2022-12-15T09:22:44.902Z,40.73
2022-12-15T09:25:17.663Z,39.43
2022-12-15T09:27:44.550Z,44.70
2022-12-15T09:30:13.700Z,41.63
2022-12-15T09:32:40.536Z,39.87
2022-12-15T09:35:08.060Z,38.47
2022-12-15T09:37:34.915Z,42.77
2022-12-15T09:40:01.774Z,47.40
2022-12-15T09:42:30.513Z,43.07
2022-12-15T09:45:04.562Z,50.03
2022-12-15T09:47:40.473Z,52.77
2022-12-15T09:50:11.852Z,53.63
2022-12-15T09:52:48.045Z,52.80
2022-12-15T09:55:22.043Z,58.97
2022-12-15T09:57:54.133Z,59.47
2022-12-15T10:00:24.486Z,60.67
2022-12-15T10:03:34.641Z,62.83
2022-12-15T10:09:00.854Z,60.23
2022-12-15T10:11:45.067Z,57.57
2022-12-15T10:14:27.865Z,52.93
2022-12-15T10:17:02.775Z,53.93
2022-12-15T10:19:39.488Z,52.63
2022-12-15T10:22:12.124Z,63.80
2022-12-15T10:27:44.834Z,53.67
2022-12-15T10:30:14.056Z,52.10
2022-12-15T10:32:50.340Z,54.23
2022-12-15T10:35:23.609Z,56.80
2022-12-15T10:37:50.505Z,55.73
2022-12-15T10:40:45.665Z,54.70
2022-12-15T10:43:25.927Z,52.23
2022-12-15T10:46:01.973Z,56.53
2022-12-15T10:48:28.909Z,60.73
2022-12-15T10:51:15.252Z,55.43
2022-12-15T10:53:45.071Z,57.97
2022-12-15T10:56:22.425Z,59.00
2022-12-15T10:58:53.805Z,59.27
2022-12-15T11:01:24.887Z,60.20
2022-12-15T11:03:54.356Z,57.77
2022-12-15T11:06:25.899Z,59.67
2022-12-15T11:08:56.319Z,57.97
2022-12-15T11:11:47.857Z,57.37
2022-12-15T11:14:20.969Z,58.67
2022-12-15T11:16:52.071Z,57.83
2022-12-15T11:19:31.848Z,61.00
2022-12-15T11:22:05.890Z,58.30
2022-12-15T11:24:40.481Z,60.83
2022-12-15T11:27:15.577Z,60.03
2022-12-15T11:30:01.388Z,64.37
2022-12-15T11:32:32.124Z,52.83
2022-12-15T11:34:59.668Z,62.40
2022-12-15T11:37:49.423Z,63.60
2022-12-15T11:40:30.906Z,65.27
2022-12-15T11:43:25.371Z,62.57
2022-12-15T11:48:33.982Z,58.25
2022-12-15T11:51:06.234Z,62.27
2022-12-15T11:53:56.107Z,55.87
2022-12-15T11:56:31.111Z,57.37
2022-12-15T11:59:25.025Z,59.93
2022-12-15T12:02:07.613Z,58.97
2022-12-15T12:04:43.188Z,60.37
2022-12-15T12:07:20.020Z,60.60
2022-12-15T12:10:03.098Z,60.83
2022-12-15T12:12:33.662Z,57.43
2022-12-15T12:15:19.704Z,58.17
2022-12-15T12:17:51.639Z,58.90
2022-12-15T12:20:21.938Z,60.23
2022-12-15T12:22:57.670Z,58.90
2022-12-15T12:25:26.880Z,61.13
2022-12-15T12:27:58.832Z,58.73
2022-12-15T12:30:29.321Z,55.93
2022-12-15T12:33:04.074Z,55.70
2022-12-15T12:35:38.100Z,54.93
2022-12-15T12:38:07.178Z,53.80
2022-12-15T12:40:53.895Z,50.63
2022-12-15T12:43:32.110Z,50.20
2022-12-15T12:46:04.121Z,53.67
2022-12-15T12:48:37.652Z,54.20
2022-12-15T12:51:17.861Z,51.13
2022-12-15T12:53:44.911Z,47.07
2022-12-15T12:56:32.999Z,52.70
2022-12-15T12:58:59.869Z,51.90
2022-12-15T13:01:31.032Z,51.23
2022-12-15T13:04:12.397Z,55.67
2022-12-15T13:07:01.144Z,61.13
2022-12-15T13:09:39.904Z,55.20
2022-12-15T13:12:50.921Z,55.40
2022-12-15T13:15:34.249Z,53.40
2022-12-15T13:18:07.177Z,49.63
2022-12-15T13:20:36.423Z,46.00
2022-12-15T13:23:33.368Z,46.80
2022-12-15T13:26:13.334Z,42.13
2022-12-15T13:28:45.951Z,44.97
2022-12-15T13:31:32.550Z,43.00
2022-12-15T13:34:18.700Z,41.97
2022-12-15T13:36:55.398Z,42.77
2022-12-15T13:39:50.695Z,43.23
2022-12-15T13:45:36.393Z,46.33
2022-12-15T13:48:13.559Z,46.33
2022-12-15T13:50:51.334Z,46.27
2022-12-15T13:53:21.905Z,47.17
2022-12-15T13:55:59.259Z,46.00
2022-12-15T13:58:30.285Z,43.33
2022-12-15T14:00:59.104Z,43.87
2022-12-15T14:03:26.357Z,41.47
2022-12-15T14:05:54.666Z,39.30
2022-12-15T14:08:24.481Z,39.07
2022-12-15T14:10:53.325Z,40.23
2022-12-15T14:13:25.043Z,39.40
2022-12-15T14:15:55.303Z,41.23
2022-12-15T14:18:29.771Z,39.93
2022-12-15T14:20:57.753Z,38.27
2022-12-15T14:23:27.721Z,37.77
2022-12-15T14:25:57.094Z,37.47
2022-12-15T14:28:30.556Z,38.80
2022-12-15T14:31:00.178Z,38.13
2022-12-15T14:33:29.933Z,36.83
2022-12-15T14:35:58.771Z,38.70
2022-12-15T14:38:31.710Z,36.57
2022-12-15T14:41:02.469Z,39.17
2022-12-15T14:43:34.037Z,37.77
2022-12-15T14:46:08.403Z,36.63
2022-12-15T14:48:41.342Z,35.30
2022-12-15T14:51:11.617Z,35.33
2022-12-15T14:53:41.929Z,36.60
2022-12-15T14:56:29.651Z,35.63
2022-12-15T14:58:59.869Z,36.97
2022-12-15T15:01:30.036Z,34.80
2022-12-15T15:03:06.436Z,59.83
2022-12-15T15:03:09.676Z,46.90
2022-12-15T15:03:59.686Z,36.47
2022-12-15T15:06:33.266Z,33.77
2022-12-15T15:09:19.722Z,32.25
2022-12-15T15:11:50.502Z,33.13
2022-12-15T15:14:22.661Z,32.33
2022-12-15T15:17:01.006Z,33.23
2022-12-15T15:19:32.318Z,32.60
2022-12-15T15:22:00.928Z,33.80
2022-12-15T15:24:32.740Z,31.77
2022-12-15T15:27:24.843Z,31.63
2022-12-15T15:29:52.490Z,30.53
2022-12-15T15:32:21.951Z,33.20
2022-12-15T15:34:50.132Z,29.57
2022-12-15T15:37:20.048Z,32.23
2022-12-15T15:39:48.656Z,31.57
2022-12-15T15:42:15.607Z,31.23
2022-12-15T15:44:42.500Z,30.23
2022-12-15T15:47:20.867Z,30.83
2022-12-15T15:49:49.316Z,30.60
2022-12-15T15:52:17.725Z,31.10
2022-12-15T15:54:45.787Z,31.90
2022-12-15T15:57:15.406Z,32.17
2022-12-15T15:59:42.552Z,29.87
2022-12-15T16:02:10.606Z,29.77
2022-12-15T16:04:40.630Z,31.30
2022-12-15T16:07:15.684Z,30.97
2022-12-15T16:09:44.074Z,32.47
2022-12-15T16:12:24.075Z,30.40
2022-12-15T16:14:50.871Z,31.73
2022-12-15T16:17:17.844Z,32.97
2022-12-15T16:19:44.720Z,30.43
2022-12-15T16:22:15.242Z,33.83
2022-12-15T16:24:44.003Z,32.87
2022-12-15T16:27:12.136Z,35.60
2022-12-15T16:29:39.406Z,33.97
2022-12-15T16:32:07.304Z,34.83
2022-12-15T16:34:34.212Z,34.73
2022-12-15T16:37:10.359Z,31.85
2022-12-15T16:53:41.347Z,30.90
2022-12-15T16:56:13.014Z,30.83
2022-12-15T16:58:39.899Z,30.20
2022-12-15T17:01:09.042Z,30.93
2022-12-15T17:03:36.032Z,28.57
2022-12-15T17:08:49.572Z,30.33
2022-12-15T17:11:19.160Z,29.00
2022-12-15T17:13:51.164Z,31.67
2022-12-15T17:16:58.783Z,31.47
2022-12-15T17:21:55.886Z,29.80
2022-12-15T17:27:30.212Z,25.50
2022-12-15T17:29:59.159Z,28.00
2022-12-15T17:32:26.824Z,30.43
2022-12-15T17:34:53.687Z,30.57
2022-12-15T17:37:20.597Z,28.23
2022-12-15T17:39:51.265Z,30.20
2022-12-15T17:42:20.661Z,30.47
2022-12-15T17:44:49.344Z,31.20
2022-12-15T17:47:19.142Z,32.57
2022-12-15T17:49:47.384Z,32.37
2022-12-15T17:52:26.926Z,31.00
2022-12-15T17:54:54.391Z,31.00
2022-12-15T17:57:21.507Z,31.10
2022-12-15T17:59:50.111Z,31.63
2022-12-15T18:02:17.466Z,33.37
2022-12-15T18:04:44.901Z,32.13
2022-12-15T18:07:18.338Z,32.63
2022-12-15T18:09:45.579Z,34.47
2022-12-15T18:12:20.555Z,32.87
2022-12-15T18:14:48.999Z,35.77
2022-12-15T18:17:16.269Z,42.10
2022-12-15T18:19:43.031Z,38.60
2022-12-15T18:22:13.002Z,37.90
2022-12-15T18:24:40.276Z,35.77
2022-12-15T18:27:19.355Z,33.77
2022-12-15T18:29:46.309Z,33.30
2022-12-15T18:32:14.996Z,31.23
2022-12-15T18:34:42.081Z,33.73
2022-12-15T18:37:14.878Z,32.03
2022-12-15T18:39:41.843Z,36.90
2022-12-15T18:42:14.270Z,42.60
2022-12-15T18:44:45.145Z,33.97
2022-12-15T18:47:16.734Z,29.20
2022-12-15T18:49:43.888Z,28.97
2022-12-15T18:52:16.803Z,25.67
2022-12-15T18:54:44.289Z,35.07
2022-12-15T18:57:26.140Z,44.43
2022-12-15T18:59:56.474Z,38.37
2022-12-15T19:02:25.091Z,34.87
2022-12-15T19:04:51.994Z,28.00
2022-12-15T19:07:19.046Z,27.47
2022-12-15T19:09:46.062Z,28.43
2022-12-15T19:12:17.818Z,24.27
2022-12-15T19:14:45.281Z,24.60
2022-12-15T19:17:32.511Z,26.93
2022-12-15T19:20:19.300Z,24.13
2022-12-15T19:22:47.558Z,26.63
2022-12-15T19:25:24.999Z,27.03
2022-12-15T19:27:58.537Z,27.70
2022-12-15T19:30:27.520Z,29.77
2022-12-15T19:32:54.600Z,30.73
2022-12-15T19:35:23.169Z,28.40
2022-12-15T19:37:50.514Z,24.70
2022-12-15T19:40:22.219Z,22.67
2022-12-15T19:42:49.961Z,26.10
2022-12-15T19:45:19.766Z,29.80
2022-12-15T19:47:46.950Z,28.97
2022-12-15T19:50:15.769Z,27.70
2022-12-15T19:52:48.502Z,29.20
2022-12-15T19:55:17.256Z,27.03
2022-12-15T19:57:44.556Z,27.40
2022-12-15T20:00:16.357Z,28.60
2022-12-15T20:02:44.671Z,27.50
2022-12-15T20:05:11.696Z,33.33
2022-12-15T20:07:38.607Z,32.50
2022-12-15T20:10:22.032Z,31.53
2022-12-15T20:12:51.469Z,33.27
2022-12-15T20:15:21.586Z,30.87
2022-12-15T20:17:50.586Z,33.47
2022-12-15T20:20:19.150Z,36.47
2022-12-15T20:22:50.787Z,37.40
2022-12-15T20:25:22.669Z,45.13
2022-12-15T20:27:49.651Z,41.63
2022-12-15T20:30:20.776Z,40.63
2022-12-15T20:32:48.307Z,45.73
2022-12-15T20:35:16.748Z,47.20
2022-12-15T20:37:44.145Z,44.90
2022-12-15T20:40:21.766Z,51.87
2022-12-15T20:42:49.475Z,48.27
2022-12-15T20:45:18.629Z,50.60
2022-12-15T20:47:47.686Z,54.83
2022-12-15T20:50:37.389Z,59.47
2022-12-15T20:53:06.089Z,57.97
2022-12-15T20:55:34.462Z,55.23
2022-12-15T20:58:01.315Z,56.27
2022-12-15T21:00:28.298Z,59.70
2022-12-15T21:02:55.510Z,54.17
2022-12-15T21:05:25.706Z,56.07
2022-12-15T21:07:52.879Z,57.10
2022-12-15T21:10:20.897Z,58.20
2022-12-15T21:12:50.579Z,56.73
2022-12-15T21:15:19.405Z,59.63
2022-12-15T21:17:46.979Z,60.73
2022-12-15T21:20:14.278Z,61.27
2022-12-15T21:22:41.499Z,58.13
2022-12-15T21:25:18.699Z,64.23
2022-12-15T21:27:45.515Z,65.37
2022-12-15T21:30:22.781Z,57.20
2022-12-15T21:32:50.543Z,53.33
2022-12-15T21:35:19.140Z,51.70
2022-12-15T21:37:49.634Z,50.23
2022-12-15T21:40:20.320Z,49.27
2022-12-15T21:42:48.999Z,50.73
2022-12-15T21:45:19.613Z,52.73
2022-12-15T21:48:05.702Z,54.43
2022-12-15T21:50:33.719Z,52.17
2022-12-15T21:53:01.345Z,54.63
2022-12-15T21:55:29.702Z,54.33
2022-12-15T21:57:57.495Z,51.97
2022-12-15T22:00:26.487Z,52.63
2022-12-15T22:02:53.866Z,50.53
2022-12-15T22:05:24.010Z,51.40
2022-12-15T22:07:51.176Z,47.50
2022-12-15T22:10:19.279Z,50.03
2022-12-15T22:12:54.636Z,49.40
2022-12-15T22:15:28.936Z,50.57
2022-12-15T22:17:56.278Z,50.53
2022-12-15T22:20:24.602Z,49.83
2022-12-15T22:22:51.582Z,50.60
2022-12-15T22:25:20.587Z,50.30
2022-12-15T22:27:47.904Z,50.60
2022-12-15T22:30:16.761Z,48.47
2022-12-15T22:32:45.855Z,49.73
2022-12-15T22:35:15.523Z,47.90
2022-12-15T22:37:42.752Z,47.47
2022-12-15T22:40:10.804Z,47.50
2022-12-15T22:42:39.965Z,44.53
2022-12-15T22:45:08.198Z,46.60
2022-12-15T22:47:37.539Z,45.47
2022-12-15T22:50:07.473Z,46.27
2022-12-15T22:52:34.332Z,45.63
2022-12-15T22:55:01.204Z,48.13
2022-12-15T22:57:29.535Z,51.67
2022-12-15T23:00:02.951Z,50.87
2022-12-15T23:02:33.551Z,46.92
2022-12-15T23:05:00.779Z,45.83
2022-12-15T23:07:29.115Z,43.90
2022-12-15T23:10:14.837Z,43.63
2022-12-15T23:12:41.634Z,44.63
2022-12-15T23:15:27.985Z,48.90
2022-12-15T23:17:55.035Z,38.50
2022-12-15T23:20:21.940Z,39.07
2022-12-15T23:22:50.108Z,39.20
2022-12-15T23:25:16.916Z,35.33
2022-12-15T23:27:43.689Z,32.47
2022-12-15T23:30:12.788Z,35.17
2022-12-15T23:32:39.577Z,34.87
2022-12-15T23:35:07.425Z,32.87
2022-12-15T23:37:35.154Z,33.87
2022-12-15T23:40:03.918Z,32.73
2022-12-15T23:42:30.738Z,30.67
2022-12-15T23:44:57.641Z,31.63
2022-12-15T23:47:24.465Z,31.33
2022-12-15T23:49:51.318Z,33.03
2022-12-15T23:52:19.799Z,31.60
2022-12-15T23:54:46.714Z,32.60
2022-12-15T23:57:14.863Z,30.77
2022-12-15T23:59:41.789Z,32.07
